createdAt,value
2023-04-09T00:00:31.088Z,6.02
2023-04-09T00:01:31.120Z,6.01
2023-04-09T00:02:31.131Z,5.99
2023-04-09T00:03:31.122Z,6.01
2023-04-09T00:04:31.069Z,6.01
2023-04-09T00:05:31.038Z,6.01
2023-04-09T00:06:31.053Z,5.99
2023-04-09T00:07:31.018Z,5.99
2023-04-09T00:08:31.156Z,5.98
2023-04-09T00:09:31.002Z,5.98
2023-04-09T00:10:30.966Z,5.98
2023-04-09T00:11:31.006Z,5.99
2023-04-09T00:12:30.926Z,5.98
2023-04-09T00:13:39.071Z,5.95
2023-04-09T00:14:31.947Z,5.93
2023-04-09T00:15:31.844Z,5.92
2023-04-09T00:16:30.937Z,5.88
2023-04-09T00:17:30.943Z,5.87
2023-04-09T00:18:30.865Z,5.84
2023-04-09T00:19:30.879Z,5.84
2023-04-09T00:20:30.834Z,5.84
2023-04-09T00:21:30.856Z,5.85
2023-04-09T00:22:30.828Z,5.88
2023-04-09T00:23:30.826Z,5.92
2023-04-09T00:24:30.814Z,5.96
2023-04-09T00:25:30.838Z,5.96
2023-04-09T00:26:30.754Z,5.95
2023-04-09T00:27:30.796Z,5.88
2023-04-09T00:28:30.824Z,5.85
2023-04-09T00:29:30.826Z,5.85
2023-04-09T00:30:30.719Z,5.84
2023-04-09T00:31:30.777Z,5.84
2023-04-09T00:32:30.737Z,5.83
2023-04-09T00:33:30.752Z,5.81
2023-04-09T00:34:30.698Z,5.84
2023-04-09T00:35:30.757Z,5.85
2023-04-09T00:36:30.654Z,5.83
2023-04-09T00:37:30.660Z,5.80
2023-04-09T00:38:30.654Z,5.78
2023-04-09T00:39:30.602Z,5.74
2023-04-09T00:40:30.633Z,5.70
2023-04-09T00:41:30.580Z,5.73
2023-04-09T00:42:30.615Z,5.73
2023-04-09T00:43:30.571Z,5.73
2023-04-09T00:44:30.562Z,5.75
2023-04-09T00:45:30.600Z,5.77
2023-04-09T00:46:30.545Z,5.77
2023-04-09T00:47:30.517Z,5.75
2023-04-09T00:48:30.467Z,5.74
2023-04-09T00:49:30.478Z,5.74
2023-04-09T00:50:30.481Z,5.69
2023-04-09T00:51:30.462Z,5.67
2023-04-09T00:52:30.453Z,5.67
2023-04-09T00:53:30.417Z,5.67
2023-04-09T00:54:30.424Z,5.67
2023-04-09T00:55:30.381Z,5.70
2023-04-09T00:56:30.413Z,5.69
2023-04-09T00:57:30.401Z,5.65
2023-04-09T00:58:30.345Z,5.63
2023-04-09T00:59:30.373Z,5.62
2023-04-09T01:00:30.330Z,5.62
2023-04-09T01:01:30.536Z,5.60
2023-04-09T01:02:30.396Z,5.60
2023-04-09T01:03:30.432Z,5.60
2023-04-09T01:04:30.322Z,5.59
2023-04-09T01:05:30.255Z,5.55
2023-04-09T01:06:30.254Z,5.52
2023-04-09T01:07:30.244Z,5.52
2023-04-09T01:08:30.217Z,5.49
2023-04-09T01:09:30.277Z,5.45
2023-04-09T01:10:30.206Z,5.41
2023-04-09T01:11:30.213Z,5.38
2023-04-09T01:12:30.411Z,5.37
2023-04-09T01:13:30.152Z,5.41
2023-04-09T01:14:30.176Z,5.38
2023-04-09T01:15:30.142Z,5.37
2023-04-09T01:16:30.167Z,5.38
2023-04-09T01:17:30.239Z,5.41
2023-04-09T01:18:30.110Z,5.42
2023-04-09T01:19:30.095Z,5.45
2023-04-09T01:20:30.109Z,5.45
2023-04-09T01:21:30.084Z,5.47
2023-04-09T01:22:30.067Z,5.45
2023-04-09T01:23:30.066Z,5.44
2023-04-09T01:24:30.332Z,5.45
2023-04-09T01:25:30.029Z,5.44
2023-04-09T01:26:29.997Z,5.44
2023-04-09T01:27:30.019Z,5.40
2023-04-09T01:28:29.955Z,5.37
2023-04-09T01:29:29.970Z,5.37
2023-04-09T01:30:29.955Z,5.35
2023-04-09T01:31:29.949Z,5.37
2023-04-09T01:32:29.949Z,5.35
2023-04-09T01:33:29.916Z,5.32
2023-04-09T01:34:29.895Z,5.26
2023-04-09T01:35:29.939Z,5.22
2023-04-09T01:36:29.857Z,5.20
2023-04-09T01:37:29.850Z,5.17
2023-04-09T01:38:29.876Z,5.12
2023-04-09T01:39:29.840Z,5.08
2023-04-09T01:40:29.837Z,5.09
2023-04-09T01:41:29.811Z,5.09
2023-04-09T01:42:29.780Z,5.09
2023-04-09T01:43:29.810Z,5.09
2023-04-09T01:44:29.783Z,5.08
2023-04-09T01:45:29.747Z,5.04
2023-04-09T01:46:29.920Z,5.01
2023-04-09T01:47:29.785Z,5.02
2023-04-09T01:48:29.757Z,5.04
2023-04-09T01:49:29.758Z,5.08
2023-04-09T01:50:29.684Z,5.09
2023-04-09T01:51:29.706Z,5.11
2023-04-09T01:52:29.663Z,5.11
2023-04-09T01:53:29.685Z,5.11
2023-04-09T01:54:29.624Z,5.12
2023-04-09T01:55:29.641Z,5.12
2023-04-09T01:56:29.605Z,5.11
2023-04-09T01:57:29.623Z,5.12
2023-04-09T01:58:29.641Z,5.12
2023-04-09T01:59:29.587Z,5.09
2023-04-09T02:00:29.598Z,5.09
2023-04-09T02:01:29.611Z,5.08
2023-04-09T02:02:29.655Z,5.06
2023-04-09T02:03:29.593Z,5.06
2023-04-09T02:04:30.529Z,5.09
2023-04-09T02:05:29.535Z,5.06
2023-04-09T02:06:29.486Z,5.05
2023-04-09T02:07:29.461Z,5.05
2023-04-09T02:08:29.517Z,5.05
2023-04-09T02:09:29.458Z,5.02
2023-04-09T02:10:29.464Z,5.02
2023-04-09T02:11:29.424Z,5.02
2023-04-09T02:12:29.428Z,5.01
2023-04-09T02:13:29.383Z,4.99
2023-04-09T02:14:29.413Z,4.97
2023-04-09T02:15:29.370Z,4.94
2023-04-09T02:16:29.395Z,4.93
2023-04-09T02:17:29.425Z,4.87
2023-04-09T02:18:30.036Z,4.84
2023-04-09T02:19:29.389Z,4.87
2023-04-09T02:20:30.065Z,4.86
2023-04-09T02:21:29.288Z,4.90
2023-04-09T02:22:29.273Z,4.91
2023-04-09T02:23:29.274Z,4.90
2023-04-09T02:24:29.257Z,4.86
2023-04-09T02:25:29.215Z,4.86
2023-04-09T02:26:29.245Z,4.83
2023-04-09T02:27:29.219Z,4.84
2023-04-09T02:28:29.223Z,4.86
2023-04-09T02:29:29.179Z,4.87
2023-04-09T02:30:29.187Z,4.87
2023-04-09T02:31:29.296Z,4.86
2023-04-09T02:32:29.188Z,4.87
2023-04-09T02:33:29.152Z,4.87
2023-04-09T02:34:29.164Z,4.86
2023-04-09T02:35:29.096Z,4.86
2023-04-09T02:36:29.496Z,4.87
2023-04-09T02:37:29.109Z,4.84
2023-04-09T02:38:29.089Z,4.87
2023-04-09T02:39:29.678Z,4.87
2023-04-09T02:40:29.078Z,4.86
2023-04-09T02:41:29.022Z,4.83
2023-04-09T02:42:29.042Z,4.79
2023-04-09T02:43:29.033Z,4.75
2023-04-09T02:44:29.060Z,4.72
2023-04-09T02:45:29.005Z,4.64
2023-04-09T02:46:29.448Z,4.56
2023-04-09T02:47:28.982Z,4.57
2023-04-09T02:48:28.970Z,4.61
2023-04-09T02:49:28.940Z,4.62
2023-04-09T02:50:29.526Z,4.68
2023-04-09T02:51:28.918Z,4.71
2023-04-09T02:52:28.899Z,4.71
2023-04-09T02:53:28.890Z,4.68
2023-04-09T02:54:28.886Z,4.71
2023-04-09T02:55:28.866Z,4.69
2023-04-09T02:56:28.875Z,4.72
2023-04-09T02:57:28.857Z,4.69
2023-04-09T02:58:28.847Z,4.65
2023-04-09T02:59:28.825Z,4.61
2023-04-09T03:00:28.814Z,4.56
2023-04-09T03:01:28.820Z,4.57
2023-04-09T03:02:28.954Z,4.56
2023-04-09T03:03:28.812Z,4.62
2023-04-09T03:04:28.748Z,4.62
2023-04-09T03:05:28.793Z,4.64
2023-04-09T03:06:28.775Z,4.65
2023-04-09T03:07:28.722Z,4.64
2023-04-09T03:08:28.698Z,4.64
2023-04-09T03:09:28.697Z,4.65
2023-04-09T03:10:28.718Z,4.61
2023-04-09T03:11:28.639Z,4.61
2023-04-09T03:12:28.661Z,4.61
2023-04-09T03:13:28.635Z,4.57
2023-04-09T03:14:28.619Z,4.53
2023-04-09T03:15:28.610Z,4.50
2023-04-09T03:16:28.637Z,4.46
2023-04-09T03:17:29.045Z,4.49
2023-04-09T03:18:28.722Z,4.47
2023-04-09T03:19:28.561Z,4.49
2023-04-09T03:20:28.556Z,4.49
2023-04-09T03:21:28.566Z,4.50
2023-04-09T03:22:28.529Z,4.50
2023-04-09T03:23:28.486Z,4.50
2023-04-09T03:24:28.512Z,4.47
2023-04-09T03:25:28.553Z,4.47
2023-04-09T03:26:28.492Z,4.49
2023-04-09T03:27:28.472Z,4.50
2023-04-09T03:28:28.477Z,4.49
2023-04-09T03:29:28.430Z,4.50
2023-04-09T03:30:28.424Z,4.50
2023-04-09T03:31:28.503Z,4.46
2023-04-09T03:32:28.425Z,4.47
2023-04-09T03:33:28.398Z,4.46
2023-04-09T03:34:28.390Z,4.46
2023-04-09T03:35:28.378Z,4.46
2023-04-09T03:36:28.338Z,4.43
2023-04-09T03:37:28.393Z,4.43
2023-04-09T03:38:28.319Z,4.42
2023-04-09T03:39:28.307Z,4.39
2023-04-09T03:40:28.367Z,4.39
2023-04-09T03:41:28.326Z,4.42
2023-04-09T03:42:28.285Z,4.42
2023-04-09T03:43:28.247Z,4.39
2023-04-09T03:44:28.267Z,4.39
2023-04-09T03:45:28.347Z,4.39
2023-04-09T03:46:28.292Z,4.42
2023-04-09T03:47:28.304Z,4.43
2023-04-09T03:48:28.185Z,4.44
2023-04-09T03:49:28.182Z,4.46
2023-04-09T03:50:28.168Z,4.47
2023-04-09T03:51:28.176Z,4.49
2023-04-09T03:52:28.130Z,4.51
2023-04-09T03:53:28.121Z,4.54
2023-04-09T03:54:29.069Z,4.61
2023-04-09T03:55:28.116Z,4.61
2023-04-09T03:56:28.089Z,4.64
2023-04-09T03:57:28.096Z,4.65
2023-04-09T03:58:28.066Z,4.64
2023-04-09T03:59:28.053Z,4.65
2023-04-09T04:00:28.034Z,4.64
2023-04-09T04:01:28.051Z,4.62
2023-04-09T04:02:28.197Z,4.59
2023-04-09T04:03:28.117Z,4.59
2023-04-09T04:04:29.142Z,4.56
2023-04-09T04:05:28.011Z,4.51
2023-04-09T04:06:27.959Z,4.50
2023-04-09T04:07:28.018Z,4.44
2023-04-09T04:08:27.947Z,4.46
2023-04-09T04:09:27.939Z,4.44
2023-04-09T04:10:27.978Z,4.49
2023-04-09T04:11:27.922Z,4.44
2023-04-09T04:12:27.888Z,4.42
2023-04-09T04:13:27.947Z,4.36
2023-04-09T04:14:27.910Z,4.35
2023-04-09T04:15:27.858Z,4.32
2023-04-09T04:16:28.557Z,4.32
2023-04-09T04:17:27.957Z,4.31
2023-04-09T04:18:27.828Z,4.25
2023-04-09T04:19:27.827Z,4.21
2023-04-09T04:20:27.926Z,4.16
2023-04-09T04:21:27.748Z,4.14
2023-04-09T04:22:27.796Z,4.11
2023-04-09T04:23:27.733Z,4.08
2023-04-09T04:24:27.758Z,4.04
2023-04-09T04:25:27.738Z,4.00
2023-04-09T04:26:27.807Z,3.98
2023-04-09T04:27:27.737Z,3.96
2023-04-09T04:28:27.735Z,3.96
2023-04-09T04:29:27.665Z,3.95
2023-04-09T04:30:27.656Z,3.90
2023-04-09T04:31:27.689Z,3.89
2023-04-09T04:32:27.672Z,3.86
2023-04-09T04:33:27.640Z,3.82
2023-04-09T04:34:27.583Z,3.81
2023-04-09T04:35:27.639Z,3.78
2023-04-09T04:36:27.576Z,3.75
2023-04-09T04:37:27.586Z,3.74
2023-04-09T04:38:27.638Z,3.71
2023-04-09T04:39:27.569Z,3.68
2023-04-09T04:40:27.572Z,3.67
2023-04-09T04:41:27.503Z,3.67
2023-04-09T04:42:27.655Z,3.64
2023-04-09T04:43:27.526Z,3.64
2023-04-09T04:44:27.545Z,3.63
2023-04-09T04:45:27.462Z,3.60
2023-04-09T04:46:27.494Z,3.59
2023-04-09T04:47:34.501Z,3.54
2023-04-09T04:48:27.430Z,3.50
2023-04-09T04:49:27.404Z,3.46
2023-04-09T04:50:27.369Z,3.44
2023-04-09T04:51:27.376Z,3.42
2023-04-09T04:52:27.364Z,3.44
2023-04-09T04:53:27.347Z,3.44
2023-04-09T04:54:27.324Z,3.52
2023-04-09T04:55:27.343Z,3.52
2023-04-09T04:56:27.296Z,3.52
2023-04-09T04:57:27.298Z,3.54
2023-04-09T04:58:27.280Z,3.59
2023-04-09T04:59:27.295Z,3.63
2023-04-09T05:00:27.266Z,3.64
2023-04-09T05:01:27.364Z,3.70
2023-04-09T05:02:27.346Z,3.70
2023-04-09T05:03:27.668Z,3.74
2023-04-09T05:04:27.218Z,3.77
2023-04-09T05:05:27.205Z,3.74
2023-04-09T05:06:27.183Z,3.74
2023-04-09T05:07:27.171Z,3.75
2023-04-09T05:08:27.180Z,3.80
2023-04-09T05:09:27.184Z,3.81
2023-04-09T05:10:27.131Z,3.81
2023-04-09T05:11:27.118Z,3.81
2023-04-09T05:12:27.101Z,3.84
2023-04-09T05:13:27.113Z,3.89
2023-04-09T05:14:27.079Z,3.95
2023-04-09T05:15:27.083Z,3.95
2023-04-09T05:16:27.075Z,3.96
2023-04-09T05:17:27.049Z,3.99
2023-04-09T05:18:27.017Z,4.02
2023-04-09T05:19:27.029Z,4.06
2023-04-09T05:20:27.021Z,4.07
2023-04-09T05:21:26.995Z,4.07
2023-04-09T05:22:26.976Z,4.07
2023-04-09T05:23:27.008Z,4.11
2023-04-09T05:24:26.952Z,4.13
2023-04-09T05:25:26.938Z,4.14
2023-04-09T05:26:26.907Z,4.13
2023-04-09T05:27:26.909Z,4.11
2023-04-09T05:28:26.898Z,4.13
2023-04-09T05:29:26.877Z,4.13
2023-04-09T05:30:26.903Z,4.16
2023-04-09T05:31:26.873Z,4.17
2023-04-09T05:32:26.879Z,4.16
2023-04-09T05:33:27.013Z,4.17
2023-04-09T05:34:26.838Z,4.20
2023-04-09T05:35:26.812Z,4.21
2023-04-09T05:36:26.777Z,4.17
2023-04-09T05:37:26.795Z,4.18
2023-04-09T05:38:26.768Z,4.18
2023-04-09T05:39:26.767Z,4.24
2023-04-09T05:40:26.745Z,4.17
2023-04-09T05:41:26.754Z,4.11
2023-04-09T05:42:26.709Z,4.11
2023-04-09T05:43:26.715Z,4.14
2023-04-09T05:44:26.687Z,4.18
2023-04-09T05:45:26.688Z,4.20
2023-04-09T05:46:26.700Z,4.25
2023-04-09T05:47:26.681Z,4.28
2023-04-09T05:48:26.644Z,4.34
2023-04-09T05:49:26.623Z,4.36
2023-04-09T05:50:26.623Z,4.35
2023-04-09T05:51:26.621Z,4.34
2023-04-09T05:52:26.590Z,4.36
2023-04-09T05:53:26.582Z,4.38
2023-04-09T05:54:26.564Z,4.39
2023-04-09T05:55:26.562Z,4.34
2023-04-09T05:56:26.534Z,4.35
2023-04-09T05:57:26.571Z,4.38
2023-04-09T05:58:26.502Z,4.34
2023-04-09T05:59:26.516Z,4.35
2023-04-09T06:00:26.493Z,4.35
2023-04-09T06:01:26.500Z,4.38
2023-04-09T06:02:26.687Z,4.43
2023-04-09T06:03:26.554Z,4.35
2023-04-09T06:04:26.485Z,4.36
2023-04-09T06:05:26.714Z,4.44
2023-04-09T06:06:26.407Z,4.44
2023-04-09T06:07:26.413Z,4.44
2023-04-09T06:08:26.402Z,4.44
2023-04-09T06:09:26.373Z,4.46
2023-04-09T06:10:26.347Z,4.49
2023-04-09T06:11:26.425Z,4.50
2023-04-09T06:12:26.359Z,4.51
2023-04-09T06:13:26.374Z,4.54
2023-04-09T06:14:26.330Z,4.59
2023-04-09T06:15:26.324Z,4.65
2023-04-09T06:16:26.293Z,4.67
2023-04-09T06:17:26.318Z,4.68
2023-04-09T06:18:26.270Z,4.74
2023-04-09T06:19:26.277Z,4.80
2023-04-09T06:20:26.271Z,4.79
2023-04-09T06:21:26.237Z,4.83
2023-04-09T06:22:26.257Z,4.84
2023-04-09T06:23:26.232Z,4.80
2023-04-09T06:24:26.202Z,4.83
2023-04-09T06:25:26.215Z,4.86
2023-04-09T06:26:26.179Z,4.87
2023-04-09T06:27:26.180Z,4.96
2023-04-09T06:28:26.158Z,4.96
2023-04-09T06:29:27.168Z,5.02
2023-04-09T06:30:26.117Z,5.02
2023-04-09T06:31:26.153Z,5.02
2023-04-09T06:32:26.083Z,5.05
2023-04-09T06:33:26.150Z,5.08
2023-04-09T06:34:26.059Z,5.08
2023-04-09T06:35:26.062Z,5.06
2023-04-09T06:36:26.240Z,5.02
2023-04-09T06:37:26.031Z,4.96
2023-04-09T06:38:26.004Z,4.91
2023-04-09T06:39:25.999Z,4.93
2023-04-09T06:40:25.973Z,4.96
2023-04-09T06:41:26.037Z,4.96
2023-04-09T06:42:25.972Z,4.90
2023-04-09T06:43:25.969Z,4.91
2023-04-09T06:44:25.929Z,4.97
2023-04-09T06:45:25.923Z,4.99
2023-04-09T06:46:25.946Z,5.08
2023-04-09T06:47:25.929Z,5.11
2023-04-09T06:48:25.876Z,5.19
2023-04-09T06:49:26.007Z,5.29
2023-04-09T06:50:25.855Z,5.41
2023-04-09T06:51:25.900Z,5.51
2023-04-09T06:52:25.854Z,5.62
2023-04-09T06:53:25.825Z,5.75
2023-04-09T06:54:25.799Z,5.87
2023-04-09T06:55:25.798Z,6.01
2023-04-09T06:56:25.777Z,6.06
2023-04-09T06:57:25.786Z,6.11
2023-04-09T06:58:25.757Z,6.19
2023-04-09T06:59:25.755Z,6.20
2023-04-09T07:00:25.710Z,6.20
2023-04-09T07:01:25.794Z,6.16
2023-04-09T07:02:25.843Z,6.14
2023-04-09T07:03:25.770Z,6.11
2023-04-09T07:04:25.747Z,6.03
2023-04-09T07:05:25.666Z,6.05
2023-04-09T07:06:25.646Z,5.99
2023-04-09T07:07:25.932Z,5.90
2023-04-09T07:08:25.685Z,5.85
2023-04-09T07:09:25.738Z,5.83
2023-04-09T07:10:25.606Z,5.83
2023-04-09T07:11:25.605Z,5.81
2023-04-09T07:12:25.593Z,5.84
2023-04-09T07:13:25.563Z,5.81
2023-04-09T07:14:25.600Z,5.84
2023-04-09T07:15:25.572Z,5.92
2023-04-09T07:16:25.757Z,5.96
2023-04-09T07:17:25.523Z,5.99
2023-04-09T07:18:25.489Z,6.02
2023-04-09T07:19:25.492Z,6.08
2023-04-09T07:20:25.465Z,6.19
2023-04-09T07:21:25.484Z,6.32
2023-04-09T07:22:25.434Z,6.39
2023-04-09T07:23:25.438Z,6.48
2023-04-09T07:24:25.408Z,6.42
2023-04-09T07:25:25.400Z,6.35
2023-04-09T07:26:25.434Z,6.32
2023-04-09T07:27:25.429Z,6.25
2023-04-09T07:28:25.442Z,6.16
2023-04-09T07:29:25.360Z,6.02
2023-04-09T07:30:25.364Z,5.99
2023-04-09T07:31:25.432Z,6.02
2023-04-09T07:32:25.354Z,6.05
2023-04-09T07:33:25.709Z,6.17
2023-04-09T07:34:25.282Z,6.28
2023-04-09T07:35:25.318Z,6.40
2023-04-09T07:36:25.296Z,6.40
2023-04-09T07:37:25.263Z,6.46
2023-04-09T07:38:25.254Z,6.51
2023-04-09T07:39:25.244Z,6.45
2023-04-09T07:40:25.293Z,6.43
2023-04-09T07:41:25.204Z,6.45
2023-04-09T07:42:25.171Z,6.39
2023-04-09T07:43:25.171Z,6.38
2023-04-09T07:44:25.178Z,6.36
2023-04-09T07:45:25.155Z,6.48
2023-04-09T07:46:25.133Z,6.58
2023-04-09T07:47:25.164Z,6.68
2023-04-09T07:48:25.096Z,6.65
2023-04-09T07:49:25.113Z,6.60
2023-04-09T07:50:25.117Z,6.45
2023-04-09T07:51:25.086Z,6.40
2023-04-09T07:52:25.039Z,6.43
2023-04-09T07:53:25.051Z,6.50
2023-04-09T07:54:25.038Z,6.48
2023-04-09T07:55:25.038Z,6.43
2023-04-09T07:56:25.031Z,6.50
2023-04-09T07:57:24.987Z,6.51
2023-04-09T07:58:24.973Z,6.54
2023-04-09T07:59:24.971Z,6.69
2023-04-09T08:00:25.079Z,6.87
2023-04-09T08:01:24.945Z,6.96
2023-04-09T08:02:25.141Z,7.14
2023-04-09T08:03:25.239Z,7.24
2023-04-09T08:04:25.031Z,7.26
2023-04-09T08:05:24.908Z,7.14
2023-04-09T08:06:24.899Z,7.04
2023-04-09T08:07:24.899Z,7.04
2023-04-09T08:08:24.864Z,7.12
2023-04-09T08:09:24.876Z,7.15
2023-04-09T08:10:24.831Z,7.18
2023-04-09T08:11:24.819Z,7.12
2023-04-09T08:12:24.793Z,7.09
2023-04-09T08:13:24.781Z,7.11
2023-04-09T08:14:24.757Z,7.14
2023-04-09T08:15:24.776Z,7.27
2023-04-09T08:16:24.804Z,7.41
2023-04-09T08:17:24.890Z,7.52
2023-04-09T08:18:24.714Z,7.51
2023-04-09T08:19:24.738Z,7.44
2023-04-09T08:20:24.681Z,7.37
2023-04-09T08:21:24.725Z,7.34
2023-04-09T08:22:24.668Z,7.21
2023-04-09T08:23:24.674Z,7.24
2023-04-09T08:24:24.909Z,7.30
2023-04-09T08:25:24.641Z,7.32
2023-04-09T08:26:24.641Z,7.26
2023-04-09T08:27:24.601Z,7.21
2023-04-09T08:28:24.587Z,7.15
2023-04-09T08:29:24.591Z,7.05
2023-04-09T08:30:24.557Z,6.91
2023-04-09T08:31:24.585Z,6.89
2023-04-09T08:32:24.568Z,7.00
2023-04-09T08:33:24.528Z,7.11
2023-04-09T08:34:24.490Z,7.19
2023-04-09T08:35:24.503Z,7.30
2023-04-09T08:36:24.532Z,7.42
2023-04-09T08:37:24.528Z,7.47
2023-04-09T08:38:24.468Z,7.50
2023-04-09T08:39:24.440Z,7.47
2023-04-09T08:40:24.539Z,7.36
2023-04-09T08:41:24.435Z,7.24
2023-04-09T08:42:24.384Z,7.23
2023-04-09T08:43:26.969Z,7.41
2023-04-09T08:44:25.355Z,7.63
2023-04-09T08:45:24.354Z,7.86
2023-04-09T08:46:24.538Z,7.96
2023-04-09T08:47:24.425Z,8.03
2023-04-09T08:48:24.365Z,8.00
2023-04-09T08:49:24.358Z,7.94
2023-04-09T08:50:24.273Z,7.89
2023-04-09T08:51:24.331Z,7.79
2023-04-09T08:52:24.245Z,7.74
2023-04-09T08:53:24.311Z,7.74
2023-04-09T08:54:24.234Z,7.71
2023-04-09T08:55:24.234Z,7.67
2023-04-09T08:56:24.197Z,7.55
2023-04-09T08:57:24.192Z,7.48
2023-04-09T08:58:24.179Z,7.42
2023-04-09T08:59:24.172Z,7.37
2023-04-09T09:00:24.140Z,7.24
2023-04-09T09:01:24.206Z,7.15
2023-04-09T09:02:24.235Z,7.23
2023-04-09T09:03:24.234Z,7.37
2023-04-09T09:04:24.194Z,7.52
2023-04-09T09:05:24.437Z,7.57
2023-04-09T09:06:24.100Z,7.54
2023-04-09T09:07:24.046Z,7.48
2023-04-09T09:08:24.051Z,7.41
2023-04-09T09:09:24.028Z,7.41
2023-04-09T09:10:24.018Z,7.47
2023-04-09T09:11:24.039Z,7.60
2023-04-09T09:12:25.473Z,7.76
2023-04-09T09:13:23.978Z,7.86
2023-04-09T09:14:23.967Z,7.85
2023-04-09T09:15:23.945Z,7.86
2023-04-09T09:16:23.976Z,8.00
2023-04-09T09:17:23.946Z,8.18
2023-04-09T09:18:23.963Z,8.36
2023-04-09T09:19:23.902Z,8.46
2023-04-09T09:20:23.912Z,8.40
2023-04-09T09:21:23.883Z,8.36
2023-04-09T09:22:23.865Z,8.24
2023-04-09T09:23:23.836Z,8.20
2023-04-09T09:24:23.830Z,8.09
2023-04-09T09:25:23.828Z,8.06
2023-04-09T09:26:23.816Z,8.12
2023-04-09T09:27:23.797Z,8.14
2023-04-09T09:28:23.819Z,8.20
2023-04-09T09:29:23.750Z,8.27
2023-04-09T09:30:23.821Z,8.36
2023-04-09T09:31:23.759Z,8.34
2023-04-09T09:32:23.747Z,8.42
2023-04-09T09:33:23.757Z,8.46
2023-04-09T09:34:23.739Z,8.50
2023-04-09T09:35:23.683Z,8.54
2023-04-09T09:36:23.685Z,8.49
2023-04-09T09:37:23.650Z,8.42
2023-04-09T09:38:23.689Z,8.43
2023-04-09T09:39:23.638Z,8.47
2023-04-09T09:40:23.643Z,8.55
2023-04-09T09:41:23.599Z,8.57
2023-04-09T09:42:23.625Z,8.52
2023-04-09T09:43:23.577Z,8.50
2023-04-09T09:44:23.571Z,8.50
2023-04-09T09:45:23.623Z,8.52
2023-04-09T09:46:23.627Z,8.43
2023-04-09T09:47:23.711Z,8.39
2023-04-09T09:48:24.099Z,8.36
2023-04-09T09:49:23.542Z,8.24
2023-04-09T09:50:23.489Z,8.20
2023-04-09T09:51:23.502Z,8.20
2023-04-09T09:52:23.495Z,8.32
2023-04-09T09:53:23.453Z,8.43
2023-04-09T09:54:23.500Z,8.57
2023-04-09T09:55:23.443Z,8.58
2023-04-09T09:56:23.422Z,8.37
2023-04-09T09:57:23.395Z,8.36
2023-04-09T09:58:23.416Z,8.45
2023-04-09T09:59:23.387Z,8.49
2023-04-09T10:00:23.888Z,8.55
2023-04-09T10:01:23.387Z,8.65
2023-04-09T10:02:23.480Z,8.78
2023-04-09T10:03:23.409Z,8.93
2023-04-09T10:04:23.391Z,9.06
2023-04-09T10:05:23.298Z,8.97
2023-04-09T10:06:23.289Z,8.83
2023-04-09T10:07:23.253Z,8.71
2023-04-09T10:08:23.269Z,8.60
2023-04-09T10:09:23.336Z,8.63
2023-04-09T10:10:23.329Z,8.71
2023-04-09T10:11:23.202Z,8.91
2023-04-09T10:12:23.232Z,8.96
2023-04-09T10:13:23.182Z,9.01
2023-04-09T10:14:23.200Z,9.03
2023-04-09T10:15:23.195Z,9.04
2023-04-09T10:16:23.466Z,8.97
2023-04-09T10:17:23.134Z,8.88
2023-04-09T10:18:23.161Z,8.86
2023-04-09T10:19:23.112Z,8.80
2023-04-09T10:20:23.131Z,8.82
2023-04-09T10:21:23.108Z,8.89
2023-04-09T10:22:23.072Z,8.88
2023-04-09T10:23:23.049Z,9.00
2023-04-09T10:24:24.023Z,9.17
2023-04-09T10:25:23.032Z,9.31
2023-04-09T10:26:23.023Z,9.35
2023-04-09T10:27:22.995Z,9.38
2023-04-09T10:28:23.023Z,9.48
2023-04-09T10:29:23.018Z,9.58
2023-04-09T10:30:22.962Z,9.60
2023-04-09T10:31:23.037Z,9.52
2023-04-09T10:32:22.972Z,9.44
2023-04-09T10:33:22.908Z,9.40
2023-04-09T10:34:22.910Z,9.26
2023-04-09T10:35:22.928Z,9.20
2023-04-09T10:36:22.960Z,9.23
2023-04-09T10:37:22.897Z,9.37
2023-04-09T10:38:22.860Z,9.41
2023-04-09T10:39:22.848Z,9.49
2023-04-09T10:40:22.832Z,9.30
2023-04-09T10:41:22.827Z,9.23
2023-04-09T10:42:22.811Z,9.35
2023-04-09T10:43:22.785Z,9.42
2023-04-09T10:44:22.820Z,9.50
2023-04-09T10:45:22.749Z,9.62
2023-04-09T10:46:23.378Z,9.58
2023-04-09T10:47:22.769Z,9.49
2023-04-09T10:48:29.770Z,9.50
2023-04-09T10:49:24.430Z,9.50
2023-04-09T10:50:24.018Z,9.24
2023-04-09T10:51:22.677Z,9.06
2023-04-09T10:52:22.665Z,9.00
2023-04-09T10:53:22.655Z,9.08
2023-04-09T10:54:22.645Z,9.27
2023-04-09T10:55:22.628Z,9.50
2023-04-09T10:56:22.627Z,9.56
2023-04-09T10:57:22.791Z,9.63
2023-04-09T10:58:22.618Z,9.67
2023-04-09T10:59:22.583Z,9.65
2023-04-09T11:00:22.598Z,9.65
2023-04-09T11:01:22.604Z,9.60
2023-04-09T11:02:22.722Z,9.53
2023-04-09T11:03:22.652Z,9.56
2023-04-09T11:04:22.518Z,9.53
2023-04-09T11:05:22.511Z,9.59
2023-04-09T11:06:22.536Z,9.52
2023-04-09T11:07:22.782Z,9.40
2023-04-09T11:08:22.496Z,9.26
2023-04-09T11:09:22.452Z,9.26
2023-04-09T11:10:22.451Z,9.34
2023-04-09T11:11:22.460Z,9.44
2023-04-09T11:12:22.420Z,9.59
2023-04-09T11:13:22.399Z,9.70
2023-04-09T11:14:22.384Z,9.78
2023-04-09T11:15:22.372Z,9.88
2023-04-09T11:16:22.444Z,9.86
2023-04-09T11:17:22.736Z,9.80
2023-04-09T11:18:22.380Z,9.71
2023-04-09T11:19:22.307Z,9.74
2023-04-09T11:20:22.309Z,9.71
2023-04-09T11:21:22.475Z,9.81
2023-04-09T11:22:22.280Z,9.92
2023-04-09T11:23:22.247Z,9.88
2023-04-09T11:24:22.261Z,9.74
2023-04-09T11:25:22.314Z,9.68
2023-04-09T11:26:22.259Z,9.65
2023-04-09T11:27:22.265Z,9.70
2023-04-09T11:28:22.227Z,9.88
2023-04-09T11:29:22.195Z,10.01
2023-04-09T11:30:22.197Z,10.07
2023-04-09T11:31:22.197Z,9.96
2023-04-09T11:32:22.155Z,9.89
2023-04-09T11:33:22.125Z,9.78
2023-04-09T11:34:22.179Z,9.85
2023-04-09T11:35:22.121Z,9.96
2023-04-09T11:36:22.142Z,10.04
2023-04-09T11:37:22.082Z,10.18
2023-04-09T11:38:22.064Z,10.28
2023-04-09T11:39:22.052Z,10.17
2023-04-09T11:40:22.046Z,10.13
2023-04-09T11:41:22.039Z,10.17
2023-04-09T11:42:22.020Z,10.16
2023-04-09T11:43:22.006Z,10.18
2023-04-09T11:44:21.988Z,10.24
2023-04-09T11:45:22.002Z,10.28
2023-04-09T11:46:22.020Z,10.20
2023-04-09T11:47:21.951Z,9.99
2023-04-09T11:48:22.243Z,9.92
2023-04-09T11:49:21.962Z,9.91
2023-04-09T11:50:21.968Z,10.04
2023-04-09T11:51:22.317Z,10.01
2023-04-09T11:52:21.995Z,10.02
2023-04-09T11:53:21.903Z,10.18
2023-04-09T11:54:21.883Z,10.29
2023-04-09T11:55:21.853Z,10.32
2023-04-09T11:56:21.837Z,10.36
2023-04-09T11:57:21.822Z,10.43
2023-04-09T11:58:21.815Z,10.52
2023-04-09T11:59:21.794Z,10.68
2023-04-09T12:00:21.799Z,10.65
2023-04-09T12:01:21.761Z,10.49
2023-04-09T12:02:21.963Z,10.46
2023-04-09T12:03:22.005Z,10.49
2023-04-09T12:04:22.029Z,10.49
2023-04-09T12:05:21.730Z,10.52
2023-04-09T12:06:21.729Z,10.57
2023-04-09T12:07:21.697Z,10.68
2023-04-09T12:08:21.681Z,10.81
2023-04-09T12:09:21.681Z,10.94
2023-04-09T12:10:21.661Z,11.06
2023-04-09T12:11:21.633Z,11.11
2023-04-09T12:12:22.654Z,11.12
2023-04-09T12:13:21.634Z,11.20
2023-04-09T12:14:21.648Z,11.30
2023-04-09T12:15:21.640Z,11.35
2023-04-09T12:16:21.621Z,11.16
2023-04-09T12:17:21.648Z,10.98
2023-04-09T12:18:21.708Z,10.91
2023-04-09T12:19:21.846Z,10.90
2023-04-09T12:20:21.578Z,10.98
2023-04-09T12:21:21.716Z,11.05
2023-04-09T12:22:21.711Z,10.99
2023-04-09T12:23:21.502Z,10.99
2023-04-09T12:24:22.274Z,11.05
2023-04-09T12:25:21.822Z,11.17
2023-04-09T12:26:21.476Z,11.24
2023-04-09T12:27:21.436Z,11.33
2023-04-09T12:28:21.452Z,11.48
2023-04-09T12:29:21.434Z,11.48
2023-04-09T12:30:21.475Z,11.36
2023-04-09T12:31:21.514Z,11.24
2023-04-09T12:32:21.426Z,11.20
2023-04-09T12:33:21.374Z,11.19
2023-04-09T12:34:21.359Z,11.08
2023-04-09T12:35:21.464Z,10.94
2023-04-09T12:36:21.316Z,10.91
2023-04-09T12:37:21.311Z,10.93
2023-04-09T12:38:21.432Z,10.95
2023-04-09T12:39:21.450Z,11.03
2023-04-09T12:40:21.315Z,11.11
2023-04-09T12:41:21.248Z,11.12
2023-04-09T12:42:21.253Z,11.19
2023-04-09T12:43:21.222Z,11.24
2023-04-09T12:44:21.214Z,11.38
2023-04-09T12:45:21.426Z,11.51
2023-04-09T12:46:21.233Z,11.59
2023-04-09T12:47:21.264Z,11.63
2023-04-09T12:48:21.219Z,11.62
2023-04-09T12:49:21.120Z,11.56
2023-04-09T12:50:21.123Z,11.59
2023-04-09T12:51:21.104Z,11.57
2023-04-09T12:52:21.117Z,11.59
2023-04-09T12:53:21.145Z,11.62
2023-04-09T12:54:21.104Z,11.60
2023-04-09T12:55:21.101Z,11.62
2023-04-09T12:56:21.068Z,11.66
2023-04-09T12:57:21.253Z,11.69
2023-04-09T12:58:21.040Z,11.74
2023-04-09T12:59:21.083Z,11.81
2023-04-09T13:00:21.003Z,11.88
2023-04-09T13:01:21.029Z,11.97
2023-04-09T13:02:21.097Z,12.01
2023-04-09T13:03:21.073Z,12.04
2023-04-09T13:04:21.031Z,12.00
2023-04-09T13:05:20.927Z,11.94
2023-04-09T13:06:20.944Z,11.93
2023-04-09T13:07:20.906Z,11.97
2023-04-09T13:08:20.922Z,11.97
2023-04-09T13:09:20.875Z,12.03
2023-04-09T13:10:20.892Z,12.08
2023-04-09T13:11:21.261Z,12.11
2023-04-09T13:12:20.847Z,12.13
2023-04-09T13:13:20.838Z,12.16
2023-04-09T13:14:21.532Z,12.15
2023-04-09T13:15:20.802Z,12.21